sensor_id;sensor_type;location;lat;lon;timestamp;noise_LAeq;noise_LA_min;noise_LA_max;noise_LA01;noise_LA95
76338;Laerm;20358;50.272;19.026;2023-05-03T00:01:43;44.54;34.07;68.74;;
76338;Laerm;20358;50.272;19.026;2023-05-03T00:04:53;45.33;34.53;69.87;;
76338;Laerm;20358;50.272;19.026;2023-05-03T00:08:01;41.69;34.28;66.00;;
76338;Laerm;20358;50.272;19.026;2023-05-03T00:11:08;45.21;33.86;67.42;;
76338;Laerm;20358;50.272;19.026;2023-05-03T00:14:14;43.08;33.70;65.51;;
76338;Laerm;20358;50.272;19.026;2023-05-03T00:17:21;41.20;33.95;66.85;;
76338;Laerm;20358;50.272;19.026;2023-05-03T00:20:30;43.85;34.49;66.19;;
76338;Laerm;20358;50.272;19.026;2023-05-03T00:23:36;40.32;33.78;65.53;;
76338;Laerm;20358;50.272;19.026;2023-05-03T00:26:42;43.09;34.23;65.99;;
76338;Laerm;20358;50.272;19.026;2023-05-03T00:29:50;40.78;33.82;61.60;;
76338;Laerm;20358;50.272;19.026;2023-05-03T00:32:56;45.95;34.34;67.03;;
76338;Laerm;20358;50.272;19.026;2023-05-03T00:36:12;44.22;34.33;64.38;;
76338;Laerm;20358;50.272;19.026;2023-05-03T00:39:17;41.92;33.72;65.40;;
76338;Laerm;20358;50.272;19.026;2023-05-03T00:42:25;40.75;33.71;66.74;;
76338;Laerm;20358;50.272;19.026;2023-05-03T00:45:33;52.56;33.85;67.76;;
76338;Laerm;20358;50.272;19.026;2023-05-03T00:48:40;42.22;33.83;62.55;;
76338;Laerm;20358;50.272;19.026;2023-05-03T00:51:50;45.35;33.82;68.46;;
76338;Laerm;20358;50.272;19.026;2023-05-03T00:54:59;41.90;34.03;63.80;;
76338;Laerm;20358;50.272;19.026;2023-05-03T00:58:05;39.94;33.71;65.16;;
76338;Laerm;20358;50.272;19.026;2023-05-03T01:01:11;44.37;33.81;62.54;;
76338;Laerm;20358;50.272;19.026;2023-05-03T01:04:18;41.04;34.45;57.28;;
76338;Laerm;20358;50.272;19.026;2023-05-03T01:07:41;38.41;33.57;51.40;;
76338;Laerm;20358;50.272;19.026;2023-05-03T01:11:01;39.85;33.88;64.35;;
76338;Laerm;20358;50.272;19.026;2023-05-03T01:14:27;39.73;33.69;67.73;;
76338;Laerm;20358;50.272;19.026;2023-05-03T01:17:52;38.41;33.57;60.53;;
76338;Laerm;20358;50.272;19.026;2023-05-03T01:21:03;44.29;34.37;61.69;;
76338;Laerm;20358;50.272;19.026;2023-05-03T01:24:21;42.50;33.38;56.92;;
76338;Laerm;20358;50.272;19.026;2023-05-03T01:27:32;37.40;32.94;58.64;;
76338;Laerm;20358;50.272;19.026;2023-05-03T01:30:40;42.79;33.65;63.55;;
76338;Laerm;20358;50.272;19.026;2023-05-03T01:34:02;40.97;33.84;66.77;;
76338;Laerm;20358;50.272;19.026;2023-05-03T01:37:13;41.57;33.77;66.94;;
76338;Laerm;20358;50.272;19.026;2023-05-03T01:40:22;42.41;33.69;62.41;;
76338;Laerm;20358;50.272;19.026;2023-05-03T01:43:34;39.97;33.67;58.93;;
76338;Laerm;20358;50.272;19.026;2023-05-03T01:46:42;47.04;33.73;71.25;;
76338;Laerm;20358;50.272;19.026;2023-05-03T01:49:49;41.10;33.84;58.08;;
76338;Laerm;20358;50.272;19.026;2023-05-03T01:52:55;40.63;33.75;61.68;;
76338;Laerm;20358;50.272;19.026;2023-05-03T01:56:01;42.88;34.03;58.51;;
76338;Laerm;20358;50.272;19.026;2023-05-03T01:59:10;38.92;33.77;56.49;;
76338;Laerm;20358;50.272;19.026;2023-05-03T02:02:16;42.70;33.66;66.53;;
76338;Laerm;20358;50.272;19.026;2023-05-03T02:05:22;36.94;33.72;50.93;;
76338;Laerm;20358;50.272;19.026;2023-05-03T02:08:29;45.98;34.06;66.22;;
76338;Laerm;20358;50.272;19.026;2023-05-03T02:11:34;42.33;34.65;65.21;;
76338;Laerm;20358;50.272;19.026;2023-05-03T02:14:44;42.68;34.00;59.21;;
76338;Laerm;20358;50.272;19.026;2023-05-03T02:17:49;40.41;33.87;53.33;;
76338;Laerm;20358;50.272;19.026;2023-05-03T02:20:56;42.92;33.89;58.10;;
76338;Laerm;20358;50.272;19.026;2023-05-03T02:24:02;42.77;34.61;63.78;;
76338;Laerm;20358;50.272;19.026;2023-05-03T02:27:09;44.31;34.45;64.82;;
76338;Laerm;20358;50.272;19.026;2023-05-03T02:30:17;45.36;34.51;63.75;;
76338;Laerm;20358;50.272;19.026;2023-05-03T02:33:23;41.63;33.91;55.39;;
76338;Laerm;20358;50.272;19.026;2023-05-03T02:36:30;46.07;34.40;66.25;;
76338;Laerm;20358;50.272;19.026;2023-05-03T02:39:37;41.29;33.90;59.52;;
76338;Laerm;20358;50.272;19.026;2023-05-03T02:42:43;43.22;34.15;65.33;;
76338;Laerm;20358;50.272;19.026;2023-05-03T02:46:00;42.86;34.11;57.85;;
76338;Laerm;20358;50.272;19.026;2023-05-03T02:49:05;44.77;34.40;64.52;;
76338;Laerm;20358;50.272;19.026;2023-05-03T02:52:11;44.98;34.47;66.90;;
76338;Laerm;20358;50.272;19.026;2023-05-03T02:55:17;44.44;34.04;64.09;;
76338;Laerm;20358;50.272;19.026;2023-05-03T02:58:24;42.94;33.80;61.44;;
76338;Laerm;20358;50.272;19.026;2023-05-03T03:01:34;45.12;35.11;59.46;;
76338;Laerm;20358;50.272;19.026;2023-05-03T03:04:41;42.62;34.41;65.62;;
76338;Laerm;20358;50.272;19.026;2023-05-03T03:07:47;42.57;34.16;64.60;;
76338;Laerm;20358;50.272;19.026;2023-05-03T03:10:54;40.89;34.28;55.27;;
76338;Laerm;20358;50.272;19.026;2023-05-03T03:13:59;45.88;35.59;63.13;;
76338;Laerm;20358;50.272;19.026;2023-05-03T03:17:09;46.11;35.17;64.06;;
76338;Laerm;20358;50.272;19.026;2023-05-03T03:20:15;43.48;35.08;65.61;;
76338;Laerm;20358;50.272;19.026;2023-05-03T03:23:22;47.40;36.53;64.19;;
76338;Laerm;20358;50.272;19.026;2023-05-03T03:26:28;43.95;35.82;65.96;;
76338;Laerm;20358;50.272;19.026;2023-05-03T03:29:35;47.25;35.01;66.93;;
76338;Laerm;20358;50.272;19.026;2023-05-03T03:32:47;44.43;35.42;64.06;;
76338;Laerm;20358;50.272;19.026;2023-05-03T03:36:01;44.64;35.90;59.14;;
76338;Laerm;20358;50.272;19.026;2023-05-03T03:39:12;45.23;35.62;66.76;;
76338;Laerm;20358;50.272;19.026;2023-05-03T03:42:19;46.90;37.38;66.86;;
76338;Laerm;20358;50.272;19.026;2023-05-03T03:45:27;48.39;35.09;67.36;;
76338;Laerm;20358;50.272;19.026;2023-05-03T03:48:37;42.87;35.41;58.65;;
76338;Laerm;20358;50.272;19.026;2023-05-03T03:51:42;45.40;35.77;57.52;;
76338;Laerm;20358;50.272;19.026;2023-05-03T03:54:49;46.86;35.40;69.10;;
76338;Laerm;20358;50.272;19.026;2023-05-03T03:57:56;43.92;36.24;59.98;;
76338;Laerm;20358;50.272;19.026;2023-05-03T04:01:04;46.66;36.19;66.25;;
76338;Laerm;20358;50.272;19.026;2023-05-03T04:04:13;42.73;35.05;61.99;;
76338;Laerm;20358;50.272;19.026;2023-05-03T04:07:20;42.64;35.23;59.53;;
76338;Laerm;20358;50.272;19.026;2023-05-03T04:10:27;45.41;35.39;62.98;;
76338;Laerm;20358;50.272;19.026;2023-05-03T04:13:34;44.06;35.52;62.28;;
76338;Laerm;20358;50.272;19.026;2023-05-03T04:16:39;48.71;36.46;70.08;;
76338;Laerm;20358;50.272;19.026;2023-05-03T04:19:48;43.91;36.52;56.82;;
76338;Laerm;20358;50.272;19.026;2023-05-03T04:22:54;47.33;35.94;70.75;;
76338;Laerm;20358;50.272;19.026;2023-05-03T04:26:04;45.16;35.46;65.35;;
76338;Laerm;20358;50.272;19.026;2023-05-03T04:29:18;47.72;36.78;64.70;;
76338;Laerm;20358;50.272;19.026;2023-05-03T04:32:25;41.67;35.90;56.95;;
76338;Laerm;20358;50.272;19.026;2023-05-03T04:35:34;48.46;35.83;62.51;;
76338;Laerm;20358;50.272;19.026;2023-05-03T04:38:44;48.97;38.28;67.06;;
76338;Laerm;20358;50.272;19.026;2023-05-03T04:41:51;46.23;36.05;57.00;;
76338;Laerm;20358;50.272;19.026;2023-05-03T04:44:58;46.87;37.32;63.83;;
76338;Laerm;20358;50.272;19.026;2023-05-03T04:48:04;46.95;36.63;67.01;;
76338;Laerm;20358;50.272;19.026;2023-05-03T04:51:14;45.94;37.06;57.63;;
76338;Laerm;20358;50.272;19.026;2023-05-03T04:54:21;45.42;35.62;69.68;;
76338;Laerm;20358;50.272;19.026;2023-05-03T04:57:28;46.76;35.57;65.41;;
76338;Laerm;20358;50.272;19.026;2023-05-03T05:00:34;40.89;34.78;52.83;;
76338;Laerm;20358;50.272;19.026;2023-05-03T05:03:46;45.19;36.69;67.86;;
76338;Laerm;20358;50.272;19.026;2023-05-03T05:06:59;46.41;38.19;57.83;;
76338;Laerm;20358;50.272;19.026;2023-05-03T05:10:09;46.30;36.65;67.57;;
76338;Laerm;20358;50.272;19.026;2023-05-03T05:13:15;44.61;36.30;57.09;;
76338;Laerm;20358;50.272;19.026;2023-05-03T05:16:21;46.73;35.53;65.92;;
76338;Laerm;20358;50.272;19.026;2023-05-03T05:19:30;43.60;36.69;58.42;;
76338;Laerm;20358;50.272;19.026;2023-05-03T05:22:39;46.00;35.02;67.82;;
76338;Laerm;20358;50.272;19.026;2023-05-03T05:25:45;45.80;35.11;67.90;;
76338;Laerm;20358;50.272;19.026;2023-05-03T05:28:52;46.97;36.62;72.14;;
76338;Laerm;20358;50.272;19.026;2023-05-03T05:31:58;43.19;35.75;58.90;;
76338;Laerm;20358;50.272;19.026;2023-05-03T05:35:08;45.44;35.97;59.60;;
76338;Laerm;20358;50.272;19.026;2023-05-03T05:38:17;44.29;35.62;57.96;;
76338;Laerm;20358;50.272;19.026;2023-05-03T05:41:25;46.49;36.86;61.53;;
76338;Laerm;20358;50.272;19.026;2023-05-03T05:44:30;48.07;38.28;64.93;;
76338;Laerm;20358;50.272;19.026;2023-05-03T05:47:37;47.92;39.28;62.80;;
76338;Laerm;20358;50.272;19.026;2023-05-03T05:50:43;46.06;36.42;62.78;;
76338;Laerm;20358;50.272;19.026;2023-05-03T05:53:54;50.05;38.44;69.13;;
76338;Laerm;20358;50.272;19.026;2023-05-03T05:56:59;48.64;38.81;70.13;;
76338;Laerm;20358;50.272;19.026;2023-05-03T06:00:07;44.81;35.99;65.88;;
76338;Laerm;20358;50.272;19.026;2023-05-03T06:03:17;47.35;37.48;67.69;;
76338;Laerm;20358;50.272;19.026;2023-05-03T06:06:25;49.93;38.86;67.25;;
76338;Laerm;20358;50.272;19.026;2023-05-03T06:09:34;44.41;35.52;62.02;;
76338;Laerm;20358;50.272;19.026;2023-05-03T06:12:42;46.55;36.03;65.95;;
76338;Laerm;20358;50.272;19.026;2023-05-03T06:15:52;46.48;37.49;67.60;;
76338;Laerm;20358;50.272;19.026;2023-05-03T06:18:59;47.11;35.98;64.79;;
76338;Laerm;20358;50.272;19.026;2023-05-03T06:22:06;48.09;37.94;67.17;;
76338;Laerm;20358;50.272;19.026;2023-05-03T06:25:17;48.05;36.98;68.37;;
76338;Laerm;20358;50.272;19.026;2023-05-03T06:28:29;46.92;37.12;67.38;;
76338;Laerm;20358;50.272;19.026;2023-05-03T06:31:36;48.22;35.62;64.62;;
76338;Laerm;20358;50.272;19.026;2023-05-03T06:34:45;45.78;37.19;68.77;;
76338;Laerm;20358;50.272;19.026;2023-05-03T06:37:53;49.93;37.97;61.93;;
76338;Laerm;20358;50.272;19.026;2023-05-03T06:41:01;48.34;37.34;68.60;;
76338;Laerm;20358;50.272;19.026;2023-05-03T06:44:08;48.56;37.17;64.47;;
76338;Laerm;20358;50.272;19.026;2023-05-03T06:47:14;49.53;37.98;66.54;;
76338;Laerm;20358;50.272;19.026;2023-05-03T06:50:22;47.28;39.19;66.06;;
76338;Laerm;20358;50.272;19.026;2023-05-03T06:53:28;51.76;39.46;67.99;;
76338;Laerm;20358;50.272;19.026;2023-05-03T06:56:38;50.14;36.61;69.00;;
76338;Laerm;20358;50.272;19.026;2023-05-03T06:59:43;48.55;37.38;67.28;;
76338;Laerm;20358;50.272;19.026;2023-05-03T07:02:50;49.11;38.91;64.89;;
76338;Laerm;20358;50.272;19.026;2023-05-03T07:05:55;49.55;38.49;68.62;;
76338;Laerm;20358;50.272;19.026;2023-05-03T07:09:02;48.40;36.86;65.69;;
76338;Laerm;20358;50.272;19.026;2023-05-03T07:12:10;50.07;37.57;71.67;;
76338;Laerm;20358;50.272;19.026;2023-05-03T07:15:17;48.68;38.12;66.70;;
76338;Laerm;20358;50.272;19.026;2023-05-03T07:18:22;48.74;37.37;67.92;;
76338;Laerm;20358;50.272;19.026;2023-05-03T07:21:29;47.15;38.10;61.46;;
76338;Laerm;20358;50.272;19.026;2023-05-03T07:24:35;48.81;37.12;66.51;;
76338;Laerm;20358;50.272;19.026;2023-05-03T07:27:45;46.74;38.92;65.62;;
76338;Laerm;20358;50.272;19.026;2023-05-03T07:30:50;53.59;36.83;75.07;;
76338;Laerm;20358;50.272;19.026;2023-05-03T07:33:57;44.58;37.24;59.78;;
76338;Laerm;20358;50.272;19.026;2023-05-03T07:37:02;53.08;36.71;74.05;;
76338;Laerm;20358;50.272;19.026;2023-05-03T07:40:10;51.97;39.71;67.29;;
76338;Laerm;20358;50.272;19.026;2023-05-03T07:43:33;48.97;36.90;63.98;;
76338;Laerm;20358;50.272;19.026;2023-05-03T07:46:40;49.47;37.96;69.57;;
76338;Laerm;20358;50.272;19.026;2023-05-03T07:49:46;48.03;38.61;65.74;;
76338;Laerm;20358;50.272;19.026;2023-05-03T07:52:53;51.43;39.19;71.75;;
76338;Laerm;20358;50.272;19.026;2023-05-03T07:55:58;50.40;38.50;70.38;;
76338;Laerm;20358;50.272;19.026;2023-05-03T07:59:07;52.68;38.77;71.85;;
76338;Laerm;20358;50.272;19.026;2023-05-03T08:02:13;48.03;35.54;69.06;;
76338;Laerm;20358;50.272;19.026;2023-05-03T08:05:20;49.98;37.23;69.12;;
76338;Laerm;20358;50.272;19.026;2023-05-03T08:08:26;48.86;36.09;66.48;;
76338;Laerm;20358;50.272;19.026;2023-05-03T08:11:33;50.99;36.45;71.76;;
76338;Laerm;20358;50.272;19.026;2023-05-03T08:14:42;49.98;37.67;68.35;;
76338;Laerm;20358;50.272;19.026;2023-05-03T08:17:48;47.72;38.80;65.79;;
76338;Laerm;20358;50.272;19.026;2023-05-03T08:20:54;50.19;40.23;68.48;;
76338;Laerm;20358;50.272;19.026;2023-05-03T08:24:00;51.91;38.10;73.69;;
76338;Laerm;20358;50.272;19.026;2023-05-03T08:27:08;51.31;39.16;72.92;;
76338;Laerm;20358;50.272;19.026;2023-05-03T08:30:19;47.87;36.99;69.86;;
76338;Laerm;20358;50.272;19.026;2023-05-03T08:33:24;50.16;40.00;67.84;;
76338;Laerm;20358;50.272;19.026;2023-05-03T08:36:31;48.61;38.47;61.86;;
76338;Laerm;20358;50.272;19.026;2023-05-03T08:39:37;50.61;39.51;69.46;;
76338;Laerm;20358;50.272;19.026;2023-05-03T08:42:45;48.70;36.32;68.95;;
76338;Laerm;20358;50.272;19.026;2023-05-03T08:45:54;49.95;38.46;68.30;;
76338;Laerm;20358;50.272;19.026;2023-05-03T08:49:01;53.24;39.64;73.32;;
76338;Laerm;20358;50.272;19.026;2023-05-03T08:52:09;51.14;39.28;69.56;;
76338;Laerm;20358;50.272;19.026;2023-05-03T08:55:16;50.87;41.33;65.46;;
76338;Laerm;20358;50.272;19.026;2023-05-03T08:58:22;52.97;38.50;82.05;;
76338;Laerm;20358;50.272;19.026;2023-05-03T09:01:32;49.06;38.47;63.88;;
76338;Laerm;20358;50.272;19.026;2023-05-03T09:04:37;50.86;40.32;69.76;;
76338;Laerm;20358;50.272;19.026;2023-05-03T09:08:00;50.52;38.86;70.58;;
76338;Laerm;20358;50.272;19.026;2023-05-03T09:11:20;50.83;39.17;69.82;;
76338;Laerm;20358;50.272;19.026;2023-05-03T09:14:26;50.14;38.51;68.59;;
76338;Laerm;20358;50.272;19.026;2023-05-03T09:17:35;50.15;36.54;68.59;;
76338;Laerm;20358;50.272;19.026;2023-05-03T09:20:44;48.56;38.87;65.00;;
76338;Laerm;20358;50.272;19.026;2023-05-03T09:23:54;51.22;41.65;70.77;;
76338;Laerm;20358;50.272;19.026;2023-05-03T09:27:16;52.23;40.71;68.05;;
76338;Laerm;20358;50.272;19.026;2023-05-03T09:30:24;50.63;40.17;68.03;;
76338;Laerm;20358;50.272;19.026;2023-05-03T09:33:33;50.17;39.45;67.50;;
76338;Laerm;20358;50.272;19.026;2023-05-03T09:36:46;49.85;39.48;68.32;;
76338;Laerm;20358;50.272;19.026;2023-05-03T09:40:05;50.99;38.76;66.88;;
76338;Laerm;20358;50.272;19.026;2023-05-03T09:43:13;58.91;41.18;77.98;;
76338;Laerm;20358;50.272;19.026;2023-05-03T09:46:22;59.56;39.43;79.23;;
76338;Laerm;20358;50.272;19.026;2023-05-03T09:49:34;49.14;36.59;66.97;;
76338;Laerm;20358;50.272;19.026;2023-05-03T09:52:41;51.73;40.63;71.42;;
76338;Laerm;20358;50.272;19.026;2023-05-03T09:55:49;59.89;40.50;82.81;;
76338;Laerm;20358;50.272;19.026;2023-05-03T09:58:56;48.51;37.76;65.70;;
76338;Laerm;20358;50.272;19.026;2023-05-03T10:02:05;50.20;37.48;67.92;;
76338;Laerm;20358;50.272;19.026;2023-05-03T10:05:20;50.14;39.30;67.73;;
76338;Laerm;20358;50.272;19.026;2023-05-03T10:08:33;50.01;39.01;67.79;;
76338;Laerm;20358;50.272;19.026;2023-05-03T10:11:47;49.53;37.61;68.04;;
76338;Laerm;20358;50.272;19.026;2023-05-03T10:14:58;48.67;37.68;67.11;;
76338;Laerm;20358;50.272;19.026;2023-05-03T10:18:09;48.61;37.54;65.47;;
76338;Laerm;20358;50.272;19.026;2023-05-03T10:21:43;48.39;36.16;68.85;;
76338;Laerm;20358;50.272;19.026;2023-05-03T10:25:09;51.38;40.07;68.55;;
76338;Laerm;20358;50.272;19.026;2023-05-03T10:28:17;50.02;36.67;67.70;;
76338;Laerm;20358;50.272;19.026;2023-05-03T10:31:43;49.33;38.10;68.21;;
76338;Laerm;20358;50.272;19.026;2023-05-03T10:34:56;49.19;37.97;64.90;;
76338;Laerm;20358;50.272;19.026;2023-05-03T10:38:18;50.16;37.79;67.12;;
76338;Laerm;20358;50.272;19.026;2023-05-03T10:41:25;52.58;41.57;67.61;;
76338;Laerm;20358;50.272;19.026;2023-05-03T10:44:39;49.68;39.21;68.87;;
76338;Laerm;20358;50.272;19.026;2023-05-03T10:48:17;50.33;38.56;68.51;;
76338;Laerm;20358;50.272;19.026;2023-05-03T10:51:34;49.76;39.51;66.68;;
76338;Laerm;20358;50.272;19.026;2023-05-03T10:54:43;51.68;41.90;67.95;;
76338;Laerm;20358;50.272;19.026;2023-05-03T10:57:53;49.89;36.28;72.24;;
76338;Laerm;20358;50.272;19.026;2023-05-03T11:01:02;50.02;38.46;66.05;;
76338;Laerm;20358;50.272;19.026;2023-05-03T11:04:20;49.26;39.50;67.29;;
76338;Laerm;20358;50.272;19.026;2023-05-03T11:07:27;50.99;39.70;68.19;;
76338;Laerm;20358;50.272;19.026;2023-05-03T11:10:36;51.53;40.64;67.30;;
76338;Laerm;20358;50.272;19.026;2023-05-03T11:13:42;51.04;38.44;65.34;;
76338;Laerm;20358;50.272;19.026;2023-05-03T11:16:50;50.00;38.22;66.32;;
76338;Laerm;20358;50.272;19.026;2023-05-03T11:19:58;50.76;38.53;71.15;;
76338;Laerm;20358;50.272;19.026;2023-05-03T11:23:06;52.31;39.91;70.46;;
76338;Laerm;20358;50.272;19.026;2023-05-03T11:26:15;50.08;37.22;69.86;;
76338;Laerm;20358;50.272;19.026;2023-05-03T11:29:26;49.45;39.33;65.71;;
76338;Laerm;20358;50.272;19.026;2023-05-03T11:32:32;50.74;38.23;68.17;;
76338;Laerm;20358;50.272;19.026;2023-05-03T11:35:39;49.86;37.68;65.36;;
76338;Laerm;20358;50.272;19.026;2023-05-03T11:38:45;50.56;40.93;71.07;;
76338;Laerm;20358;50.272;19.026;2023-05-03T11:42:04;49.72;37.60;68.14;;
76338;Laerm;20358;50.272;19.026;2023-05-03T11:45:10;49.90;37.79;66.17;;
76338;Laerm;20358;50.272;19.026;2023-05-03T11:48:18;51.68;39.68;65.86;;
76338;Laerm;20358;50.272;19.026;2023-05-03T11:51:24;51.44;38.08;67.47;;
76338;Laerm;20358;50.272;19.026;2023-05-03T11:54:32;49.79;40.61;71.50;;
76338;Laerm;20358;50.272;19.026;2023-05-03T11:57:41;49.32;37.55;67.68;;
76338;Laerm;20358;50.272;19.026;2023-05-03T12:00:49;51.05;39.62;70.75;;
76338;Laerm;20358;50.272;19.026;2023-05-03T12:03:58;48.17;37.35;69.49;;
76338;Laerm;20358;50.272;19.026;2023-05-03T12:07:06;51.16;39.11;72.08;;
76338;Laerm;20358;50.272;19.026;2023-05-03T12:10:17;58.37;40.86;80.12;;
76338;Laerm;20358;50.272;19.026;2023-05-03T12:13:34;50.82;39.77;67.74;;
76338;Laerm;20358;50.272;19.026;2023-05-03T12:16:47;50.03;38.82;69.70;;
76338;Laerm;20358;50.272;19.026;2023-05-03T12:20:15;51.72;38.02;67.36;;
76338;Laerm;20358;50.272;19.026;2023-05-03T12:23:24;59.06;39.51;82.35;;
76338;Laerm;20358;50.272;19.026;2023-05-03T12:26:32;52.93;40.67;72.78;;
76338;Laerm;20358;50.272;19.026;2023-05-03T12:29:41;52.32;40.05;71.47;;
76338;Laerm;20358;50.272;19.026;2023-05-03T12:32:49;51.02;39.76;66.62;;
76338;Laerm;20358;50.272;19.026;2023-05-03T12:35:55;52.34;40.11;70.70;;
76338;Laerm;20358;50.272;19.026;2023-05-03T12:39:06;64.28;42.63;84.63;;
76338;Laerm;20358;50.272;19.026;2023-05-03T12:42:12;50.19;38.46;62.65;;
76338;Laerm;20358;50.272;19.026;2023-05-03T12:45:22;51.04;41.66;66.20;;
76338;Laerm;20358;50.272;19.026;2023-05-03T12:48:29;50.71;40.27;69.90;;
76338;Laerm;20358;50.272;19.026;2023-05-03T12:51:36;51.65;41.10;66.48;;
76338;Laerm;20358;50.272;19.026;2023-05-03T12:54:44;59.18;41.60;79.79;;
76338;Laerm;20358;50.272;19.026;2023-05-03T12:57:52;50.44;39.54;68.96;;
76338;Laerm;20358;50.272;19.026;2023-05-03T13:01:20;50.72;39.31;69.04;;
76338;Laerm;20358;50.272;19.026;2023-05-03T13:04:30;48.96;38.26;66.60;;
76338;Laerm;20358;50.272;19.026;2023-05-03T13:07:56;51.12;39.12;69.03;;
76338;Laerm;20358;50.272;19.026;2023-05-03T13:11:04;49.11;37.34;69.59;;
76338;Laerm;20358;50.272;19.026;2023-05-03T13:14:10;48.29;37.50;66.94;;
76338;Laerm;20358;50.272;19.026;2023-05-03T13:17:21;51.01;38.59;68.06;;
76338;Laerm;20358;50.272;19.026;2023-05-03T13:20:26;49.96;38.84;66.48;;
76338;Laerm;20358;50.272;19.026;2023-05-03T13:23:33;51.02;38.42;66.96;;
76338;Laerm;20358;50.272;19.026;2023-05-03T13:26:38;51.35;41.95;68.37;;
76338;Laerm;20358;50.272;19.026;2023-05-03T13:29:45;49.45;37.67;62.45;;
76338;Laerm;20358;50.272;19.026;2023-05-03T13:32:53;50.00;35.94;64.53;;
76338;Laerm;20358;50.272;19.026;2023-05-03T13:36:00;51.59;36.82;70.08;;
76338;Laerm;20358;50.272;19.026;2023-05-03T13:39:05;50.20;38.80;66.30;;
76338;Laerm;20358;50.272;19.026;2023-05-03T13:42:13;50.64;35.79;66.63;;
76338;Laerm;20358;50.272;19.026;2023-05-03T13:45:19;49.09;35.41;64.20;;
76338;Laerm;20358;50.272;19.026;2023-05-03T13:48:28;48.80;37.23;64.99;;
76338;Laerm;20358;50.272;19.026;2023-05-03T13:51:35;48.27;37.45;65.36;;
76338;Laerm;20358;50.272;19.026;2023-05-03T13:54:41;50.57;40.17;66.89;;
76338;Laerm;20358;50.272;19.026;2023-05-03T13:57:47;48.51;36.40;63.54;;
76338;Laerm;20358;50.272;19.026;2023-05-03T14:00:54;50.46;37.37;68.82;;
76338;Laerm;20358;50.272;19.026;2023-05-03T14:04:02;51.08;36.51;68.57;;
76338;Laerm;20358;50.272;19.026;2023-05-03T14:07:09;53.68;37.40;70.32;;
76338;Laerm;20358;50.272;19.026;2023-05-03T14:10:16;50.15;37.23;65.91;;
76338;Laerm;20358;50.272;19.026;2023-05-03T14:13:22;49.58;37.80;70.18;;
76338;Laerm;20358;50.272;19.026;2023-05-03T14:16:28;49.94;37.53;73.74;;
76338;Laerm;20358;50.272;19.026;2023-05-03T14:19:46;51.32;36.89;71.08;;
76338;Laerm;20358;50.272;19.026;2023-05-03T14:22:52;48.80;37.20;67.83;;
76338;Laerm;20358;50.272;19.026;2023-05-03T14:26:00;48.30;38.51;66.89;;
76338;Laerm;20358;50.272;19.026;2023-05-03T14:29:06;49.72;39.66;65.20;;
76338;Laerm;20358;50.272;19.026;2023-05-03T14:32:13;48.64;35.70;69.42;;
76338;Laerm;20358;50.272;19.026;2023-05-03T14:35:21;49.34;36.63;59.87;;
76338;Laerm;20358;50.272;19.026;2023-05-03T14:38:28;49.63;38.73;67.66;;
76338;Laerm;20358;50.272;19.026;2023-05-03T14:41:34;47.70;36.16;61.71;;
76338;Laerm;20358;50.272;19.026;2023-05-03T14:44:40;48.84;35.98;64.33;;
76338;Laerm;20358;50.272;19.026;2023-05-03T14:47:46;47.70;36.57;67.83;;
76338;Laerm;20358;50.272;19.026;2023-05-03T14:50:56;51.42;39.26;67.29;;
76338;Laerm;20358;50.272;19.026;2023-05-03T14:54:02;49.56;37.69;65.81;;
76338;Laerm;20358;50.272;19.026;2023-05-03T14:57:08;51.81;38.72;69.20;;
76338;Laerm;20358;50.272;19.026;2023-05-03T15:00:15;51.48;37.95;64.77;;
76338;Laerm;20358;50.272;19.026;2023-05-03T15:03:21;48.51;37.67;64.59;;
76338;Laerm;20358;50.272;19.026;2023-05-03T15:06:30;49.60;36.55;64.13;;
76338;Laerm;20358;50.272;19.026;2023-05-03T15:09:41;53.48;37.54;71.00;;
76338;Laerm;20358;50.272;19.026;2023-05-03T15:12:47;50.34;41.57;63.10;;
76338;Laerm;20358;50.272;19.026;2023-05-03T15:15:54;49.48;38.85;66.16;;
76338;Laerm;20358;50.272;19.026;2023-05-03T15:19:00;49.67;36.70;67.58;;
76338;Laerm;20358;50.272;19.026;2023-05-03T15:22:09;49.64;37.00;69.98;;
76338;Laerm;20358;50.272;19.026;2023-05-03T15:25:16;51.95;39.03;70.44;;
76338;Laerm;20358;50.272;19.026;2023-05-03T15:28:22;51.55;38.43;70.84;;
76338;Laerm;20358;50.272;19.026;2023-05-03T15:31:28;47.63;36.36;67.93;;
76338;Laerm;20358;50.272;19.026;2023-05-03T15:34:35;51.12;38.86;70.36;;
76338;Laerm;20358;50.272;19.026;2023-05-03T15:37:43;50.68;37.46;68.53;;
76338;Laerm;20358;50.272;19.026;2023-05-03T15:40:50;53.10;39.96;73.16;;
76338;Laerm;20358;50.272;19.026;2023-05-03T15:43:56;50.07;40.60;64.59;;
76338;Laerm;20358;50.272;19.026;2023-05-03T15:47:07;51.97;39.95;67.32;;
76338;Laerm;20358;50.272;19.026;2023-05-03T15:50:13;50.79;37.03;69.73;;
76338;Laerm;20358;50.272;19.026;2023-05-03T15:53:22;50.22;36.26;70.08;;
76338;Laerm;20358;50.272;19.026;2023-05-03T15:56:28;50.59;37.32;63.93;;
76338;Laerm;20358;50.272;19.026;2023-05-03T15:59:35;48.66;36.99;65.01;;
76338;Laerm;20358;50.272;19.026;2023-05-03T16:02:41;47.10;35.80;68.83;;
76338;Laerm;20358;50.272;19.026;2023-05-03T16:05:48;50.53;35.93;70.45;;
76338;Laerm;20358;50.272;19.026;2023-05-03T16:08:56;48.90;36.71;67.16;;
76338;Laerm;20358;50.272;19.026;2023-05-03T16:12:04;51.85;38.97;71.27;;
76338;Laerm;20358;50.272;19.026;2023-05-03T16:15:10;52.68;38.18;72.10;;
76338;Laerm;20358;50.272;19.026;2023-05-03T16:18:17;50.56;41.26;70.41;;
76338;Laerm;20358;50.272;19.026;2023-05-03T16:21:23;52.30;38.93;69.84;;
76338;Laerm;20358;50.272;19.026;2023-05-03T16:24:32;52.44;40.36;70.69;;
76338;Laerm;20358;50.272;19.026;2023-05-03T16:27:38;51.34;39.05;71.18;;
76338;Laerm;20358;50.272;19.026;2023-05-03T16:30:45;50.34;37.29;71.01;;
76338;Laerm;20358;50.272;19.026;2023-05-03T16:33:51;49.46;37.15;63.17;;
76338;Laerm;20358;50.272;19.026;2023-05-03T16:36:57;50.97;38.35;71.26;;
76338;Laerm;20358;50.272;19.026;2023-05-03T16:40:06;51.63;40.55;67.67;;
76338;Laerm;20358;50.272;19.026;2023-05-03T16:43:13;49.51;38.26;67.50;;
76338;Laerm;20358;50.272;19.026;2023-05-03T16:46:20;49.05;36.62;64.85;;
76338;Laerm;20358;50.272;19.026;2023-05-03T16:49:31;49.41;36.12;68.08;;
76338;Laerm;20358;50.272;19.026;2023-05-03T16:52:39;50.06;36.05;68.51;;
76338;Laerm;20358;50.272;19.026;2023-05-03T16:55:49;49.64;37.91;67.83;;
76338;Laerm;20358;50.272;19.026;2023-05-03T16:58:56;46.10;35.39;63.70;;
76338;Laerm;20358;50.272;19.026;2023-05-03T17:02:02;47.77;36.41;67.80;;
76338;Laerm;20358;50.272;19.026;2023-05-03T17:05:09;49.66;36.95;67.00;;
76338;Laerm;20358;50.272;19.026;2023-05-03T17:08:17;49.76;36.45;69.34;;
76338;Laerm;20358;50.272;19.026;2023-05-03T17:11:25;48.52;36.10;66.63;;
76338;Laerm;20358;50.272;19.026;2023-05-03T17:14:32;52.20;35.58;70.70;;
76338;Laerm;20358;50.272;19.026;2023-05-03T17:17:38;51.08;40.05;71.91;;
76338;Laerm;20358;50.272;19.026;2023-05-03T17:20:45;49.37;38.57;67.01;;